createdAt,value
2022-08-17T00:00:43.055Z,29.06
2022-08-17T00:03:19.496Z,29.27
2022-08-17T00:05:53.666Z,29.44
2022-08-17T00:08:26.209Z,29.48
2022-08-17T00:10:57.114Z,29.32
2022-08-17T00:13:34.892Z,29.26
2022-08-17T00:16:10.423Z,29.35
2022-08-17T00:19:05.718Z,29.87
2022-08-17T00:21:56.311Z,29.79
2022-08-17T00:24:18.762Z,30.04
2022-08-17T00:26:48.178Z,29.82
2022-08-17T00:29:20.073Z,30.28
2022-08-17T00:31:50.671Z,30.04
2022-08-17T00:34:19.344Z,30.62
2022-08-17T00:36:47.730Z,30.30
2022-08-17T00:39:16.164Z,30.62
2022-08-17T00:41:44.735Z,30.68
2022-08-17T00:44:13.206Z,30.72
2022-08-17T00:46:44.720Z,30.85
2022-08-17T00:49:16.412Z,30.96
2022-08-17T00:51:51.901Z,30.99
2022-08-17T00:54:25.186Z,31.15
2022-08-17T00:57:00.074Z,31.23
2022-08-17T00:59:32.968Z,30.87
2022-08-17T01:02:02.754Z,31.09
2022-08-17T01:04:34.015Z,31.24
2022-08-17T01:07:04.650Z,31.32
2022-08-17T01:09:34.051Z,31.33
2022-08-17T01:12:02.463Z,31.47
2022-08-17T01:14:30.841Z,32.04
2022-08-17T01:17:00.250Z,31.73
2022-08-17T01:19:35.842Z,31.72
2022-08-17T01:22:10.271Z,32.34
2022-08-17T01:24:43.463Z,31.93
2022-08-17T01:27:15.702Z,31.92
2022-08-17T01:29:53.134Z,32.47
2022-08-17T01:32:21.763Z,32.51
2022-08-17T01:34:50.936Z,32.46
2022-08-17T01:37:21.629Z,32.46
2022-08-17T01:39:58.785Z,32.27
2022-08-17T01:42:34.239Z,32.60
2022-08-17T01:45:10.113Z,32.36
2022-08-17T01:47:39.007Z,32.33
2022-08-17T01:50:13.256Z,32.70
2022-08-17T01:52:42.731Z,32.76
2022-08-17T01:55:14.636Z,32.59
2022-08-17T01:57:45.557Z,32.95
2022-08-17T02:00:15.839Z,32.54
2022-08-17T02:02:45.926Z,32.53
2022-08-17T02:05:15.323Z,33.01
2022-08-17T02:07:59.773Z,33.12
2022-08-17T02:10:33.853Z,33.18
2022-08-17T02:13:02.848Z,33.33
2022-08-17T02:15:32.056Z,32.97
2022-08-17T02:18:00.774Z,33.41
2022-08-17T02:20:41.333Z,33.22
2022-08-17T02:23:12.582Z,33.33
2022-08-17T02:25:45.296Z,33.60
2022-08-17T02:28:13.707Z,33.57
2022-08-17T02:30:59.349Z,33.57
2022-08-17T02:33:41.864Z,32.98
2022-08-17T02:36:13.522Z,33.18
2022-08-17T02:38:42.798Z,33.42
2022-08-17T02:41:13.092Z,33.36
2022-08-17T02:43:41.990Z,33.51
2022-08-17T02:46:12.776Z,33.21
2022-08-17T02:48:41.842Z,33.87
2022-08-17T02:51:10.618Z,33.82
2022-08-17T02:53:39.094Z,33.92
2022-08-17T02:56:08.066Z,34.03
2022-08-17T02:58:37.943Z,33.61
2022-08-17T03:01:09.707Z,33.56
2022-08-17T03:03:39.819Z,34.14
2022-08-17T03:06:09.564Z,33.94
2022-08-17T03:08:38.610Z,34.26
2022-08-17T03:11:07.272Z,34.18
2022-08-17T03:13:37.036Z,34.45
2022-08-17T03:16:06.237Z,34.36
2022-08-17T03:18:34.767Z,34.62
2022-08-17T03:21:04.676Z,34.62
2022-08-17T03:23:33.819Z,34.28
2022-08-17T03:26:02.510Z,34.33
2022-08-17T03:28:30.883Z,34.53
2022-08-17T03:31:00.761Z,34.88
2022-08-17T03:33:29.190Z,34.74
2022-08-17T03:35:58.089Z,34.76
2022-08-17T03:38:27.648Z,34.68
2022-08-17T03:40:59.690Z,34.74
2022-08-17T03:43:32.560Z,34.90
2022-08-17T03:46:28.582Z,34.89
2022-08-17T03:49:21.663Z,34.77
2022-08-17T03:52:07.330Z,34.89
2022-08-17T03:54:53.168Z,35.54
2022-08-17T03:57:21.640Z,35.45
2022-08-17T03:59:50.782Z,35.38
2022-08-17T04:02:25.256Z,35.25
2022-08-17T04:04:54.242Z,35.28
2022-08-17T04:07:27.585Z,35.67
2022-08-17T04:09:58.091Z,35.18
2022-08-17T04:12:31.006Z,35.42
2022-08-17T04:15:00.188Z,35.53
2022-08-17T04:17:30.948Z,35.68
2022-08-17T04:19:59.498Z,35.32
2022-08-17T04:22:31.159Z,35.69
2022-08-17T04:25:07.923Z,35.51
2022-08-17T04:27:36.350Z,35.88
2022-08-17T04:30:07.513Z,35.74
2022-08-17T04:33:10.825Z,35.79
2022-08-17T04:35:43.974Z,36.01
2022-08-17T04:38:16.615Z,36.15
2022-08-17T04:41:02.809Z,36.23
2022-08-17T04:43:33.656Z,36.06
2022-08-17T04:46:05.681Z,35.91
2022-08-17T04:48:39.747Z,35.76
2022-08-17T04:51:12.083Z,35.59
2022-08-17T04:53:42.677Z,35.91
2022-08-17T04:56:16.127Z,36.00
2022-08-17T04:58:49.819Z,35.90
2022-08-17T05:01:23.977Z,35.80
2022-08-17T05:03:56.237Z,35.41
2022-08-17T05:06:25.408Z,35.86
2022-08-17T05:08:54.259Z,35.63
2022-08-17T05:11:23.587Z,35.38
2022-08-17T05:13:52.125Z,35.23
2022-08-17T05:16:22.244Z,35.32
2022-08-17T05:18:50.846Z,35.76
2022-08-17T05:21:22.123Z,35.27
2022-08-17T05:23:54.883Z,35.53
2022-08-17T05:26:25.938Z,35.48
2022-08-17T05:28:59.592Z,35.02
2022-08-17T05:31:30.000Z,34.77
2022-08-17T05:33:59.031Z,34.81
2022-08-17T05:36:41.565Z,34.96
2022-08-17T05:39:16.479Z,34.98
2022-08-17T05:41:48.784Z,34.49
2022-08-17T05:44:18.228Z,34.53
2022-08-17T05:46:52.389Z,34.43
2022-08-17T05:49:27.560Z,34.35
2022-08-17T05:52:14.691Z,34.44
2022-08-17T05:55:04.177Z,33.94
2022-08-17T05:57:53.075Z,33.91
2022-08-17T06:00:30.708Z,33.79
2022-08-17T06:03:26.758Z,33.82
2022-08-17T06:06:31.889Z,33.97
2022-08-17T06:09:24.809Z,33.49
2022-08-17T06:12:01.617Z,33.09
2022-08-17T06:14:51.218Z,33.02
2022-08-17T06:17:23.814Z,32.92
2022-08-17T06:19:57.020Z,32.89
2022-08-17T06:22:30.792Z,32.51
2022-08-17T06:25:10.209Z,32.51
2022-08-17T06:27:42.623Z,32.46
2022-08-17T06:30:16.574Z,32.21
2022-08-17T06:32:48.976Z,32.07
2022-08-17T06:35:27.783Z,31.81
2022-08-17T06:38:33.962Z,31.74
2022-08-17T06:41:15.492Z,31.37
2022-08-17T06:44:10.952Z,31.61
2022-08-17T06:46:48.681Z,31.53
2022-08-17T06:49:28.587Z,31.22
2022-08-17T06:52:08.046Z,30.71
2022-08-17T06:54:47.308Z,30.66
2022-08-17T06:57:24.910Z,30.74
2022-08-17T06:59:58.450Z,30.65
2022-08-17T07:02:52.934Z,30.64
2022-08-17T07:05:26.649Z,30.84
2022-08-17T07:08:04.029Z,30.48
2022-08-17T07:10:44.297Z,30.53
2022-08-17T07:13:30.746Z,30.53
2022-08-17T07:16:15.535Z,29.85
2022-08-17T07:18:44.863Z,29.82
2022-08-17T07:21:27.589Z,29.46
2022-08-17T07:24:26.192Z,29.76
2022-08-17T07:27:13.501Z,29.17
2022-08-17T07:29:50.599Z,29.44
2022-08-17T07:32:25.068Z,29.10
2022-08-17T07:35:16.247Z,28.98
2022-08-17T07:37:50.987Z,28.14
2022-08-17T07:40:32.165Z,28.08
2022-08-17T07:43:22.255Z,28.20
2022-08-17T07:46:21.477Z,28.26
2022-08-17T07:48:52.909Z,27.83
2022-08-17T07:51:33.899Z,27.28
2022-08-17T07:54:22.408Z,27.48
2022-08-17T07:56:54.287Z,27.47
2022-08-17T07:59:33.588Z,27.15
2022-08-17T08:02:31.808Z,27.32
2022-08-17T08:05:10.132Z,27.10
2022-08-17T08:07:42.560Z,26.45
2022-08-17T08:10:15.276Z,26.87
2022-08-17T08:12:46.023Z,26.84
2022-08-17T08:15:19.494Z,26.39
2022-08-17T08:17:54.542Z,26.41
2022-08-17T08:20:53.055Z,26.30
2022-08-17T08:23:39.591Z,26.15
2022-08-17T08:26:27.645Z,26.70
2022-08-17T08:29:08.395Z,26.23
2022-08-17T08:31:57.303Z,25.90
2022-08-17T08:34:58.923Z,25.61
2022-08-17T08:37:49.562Z,26.01
2022-08-17T08:40:47.749Z,25.83
2022-08-17T08:43:30.420Z,25.45
2022-08-17T08:46:12.310Z,25.22
2022-08-17T08:49:12.258Z,25.83
2022-08-17T08:51:53.242Z,25.66
2022-08-17T08:54:36.984Z,25.72
2022-08-17T08:57:25.606Z,25.33
2022-08-17T09:00:15.267Z,25.34
2022-08-17T09:03:32.409Z,25.50
2022-08-17T09:06:40.088Z,25.41
2022-08-17T09:09:25.487Z,25.61
2022-08-17T09:12:06.528Z,25.22
2022-08-17T09:14:45.361Z,25.01
2022-08-17T09:17:20.347Z,24.93
2022-08-17T09:19:56.014Z,24.77
2022-08-17T09:22:37.119Z,24.54
2022-08-17T09:25:13.318Z,24.44
2022-08-17T09:27:54.877Z,24.34
2022-08-17T09:30:25.074Z,24.08
2022-08-17T09:32:59.881Z,24.08
2022-08-17T09:35:37.640Z,24.13
2022-08-17T09:38:22.145Z,24.29
2022-08-17T09:41:00.907Z,24.34
2022-08-17T09:43:43.828Z,23.99
2022-08-17T09:46:20.361Z,23.84
2022-08-17T09:48:58.353Z,24.08
2022-08-17T09:51:34.402Z,23.74
2022-08-17T09:54:21.342Z,23.65
2022-08-17T09:57:29.324Z,23.54
2022-08-17T10:00:16.603Z,23.52
2022-08-17T10:03:22.112Z,23.61
2022-08-17T10:05:57.212Z,23.35
2022-08-17T10:08:41.190Z,23.22
2022-08-17T10:11:33.523Z,23.00
2022-08-17T10:14:37.607Z,22.69
2022-08-17T10:17:11.889Z,22.90
2022-08-17T10:19:48.000Z,22.61
2022-08-17T10:22:42.596Z,22.78
2022-08-17T10:25:53.633Z,22.90
2022-08-17T10:28:28.943Z,23.00
2022-08-17T10:31:33.606Z,22.84
2022-08-17T10:34:18.819Z,22.84
2022-08-17T10:36:56.473Z,23.09
2022-08-17T10:39:35.380Z,22.54
2022-08-17T10:42:32.963Z,22.63
2022-08-17T10:45:08.262Z,22.54
2022-08-17T10:48:05.082Z,22.45
2022-08-17T10:51:00.779Z,22.34
2022-08-17T10:54:01.792Z,21.93
2022-08-17T10:56:51.113Z,21.54
2022-08-17T10:59:52.643Z,21.92
2022-08-17T11:02:33.502Z,20.59
2022-08-17T11:05:44.067Z,20.30
2022-08-17T11:08:43.338Z,19.44
2022-08-17T11:11:47.488Z,18.90
2022-08-17T11:14:33.480Z,18.54
2022-08-17T11:17:35.492Z,18.47
2022-08-17T11:21:01.608Z,17.84
2022-08-17T11:24:15.277Z,17.43
2022-08-17T11:26:48.957Z,15.93
2022-08-17T11:29:25.663Z,15.61
2022-08-17T11:32:07.939Z,15.54
2022-08-17T11:34:41.811Z,14.75
2022-08-17T11:37:44.145Z,14.70
2022-08-17T11:41:15.590Z,14.26
2022-08-17T11:44:23.428Z,13.91
2022-08-17T11:47:33.704Z,13.44
2022-08-17T11:50:56.614Z,13.16
2022-08-17T11:54:32.411Z,13.27
2022-08-17T11:57:22.857Z,12.30
2022-08-17T12:00:03.629Z,12.41
2022-08-17T12:02:48.148Z,11.46
2022-08-17T12:05:32.934Z,11.07
2022-08-17T12:08:19.747Z,11.13
2022-08-17T12:11:05.750Z,11.35
2022-08-17T12:13:46.389Z,10.57
2022-08-17T12:16:17.809Z,10.42
2022-08-17T12:18:53.695Z,9.95
2022-08-17T12:21:43.705Z,10.59
2022-08-17T12:24:31.426Z,9.92
2022-08-17T12:27:05.362Z,9.81
2022-08-17T12:29:38.819Z,9.27
2022-08-17T12:32:16.644Z,8.82
2022-08-17T12:34:47.719Z,8.53
2022-08-17T12:37:22.031Z,8.24
2022-08-17T12:39:55.947Z,8.25
2022-08-17T12:42:31.222Z,8.03
2022-08-17T12:45:00.221Z,8.19
2022-08-17T12:47:30.157Z,7.81
2022-08-17T12:50:28.667Z,8.15
2022-08-17T12:53:02.339Z,7.35
2022-08-17T12:55:36.966Z,7.31
2022-08-17T12:58:14.431Z,7.67
2022-08-17T13:00:51.829Z,7.61
2022-08-17T13:03:23.732Z,7.04
2022-08-17T13:06:01.754Z,6.93
2022-08-17T13:08:36.154Z,7.00
2022-08-17T13:11:09.399Z,6.86
2022-08-17T13:13:42.958Z,6.19
2022-08-17T13:16:20.243Z,6.27
2022-08-17T13:18:53.756Z,6.15
2022-08-17T13:21:30.444Z,5.76
2022-08-17T13:24:02.784Z,6.29
2022-08-17T13:26:35.401Z,5.67
2022-08-17T13:29:09.493Z,5.44
2022-08-17T13:31:51.821Z,5.69
2022-08-17T13:35:12.090Z,6.01
2022-08-17T13:37:33.767Z,5.82
2022-08-17T13:40:31.134Z,5.39
2022-08-17T13:43:00.147Z,5.74
2022-08-17T13:45:51.124Z,5.89
2022-08-17T13:48:32.073Z,5.55
2022-08-17T13:51:27.983Z,5.88
2022-08-17T13:54:21.161Z,5.52
2022-08-17T13:57:05.345Z,5.26
2022-08-17T13:59:55.030Z,5.41
2022-08-17T14:02:28.536Z,5.10
2022-08-17T14:05:00.567Z,4.95
2022-08-17T14:07:35.650Z,4.96
2022-08-17T14:10:10.922Z,5.13
2022-08-17T14:12:41.921Z,5.10
2022-08-17T14:15:12.660Z,4.84
2022-08-17T14:17:42.574Z,4.69
2022-08-17T14:20:14.404Z,4.79
2022-08-17T14:22:46.633Z,4.57
2022-08-17T14:25:18.768Z,4.71
2022-08-17T14:27:53.185Z,4.51
2022-08-17T14:30:25.098Z,4.68
2022-08-17T14:32:56.697Z,4.35
2022-08-17T14:35:27.880Z,4.29
2022-08-17T14:37:56.834Z,4.46
2022-08-17T14:40:26.400Z,4.24
2022-08-17T14:42:56.795Z,4.46
2022-08-17T14:45:31.511Z,4.30
2022-08-17T14:48:05.856Z,4.43
2022-08-17T14:50:35.954Z,3.69
2022-08-17T14:53:05.959Z,3.57
2022-08-17T14:55:35.081Z,3.59
2022-08-17T14:58:04.360Z,4.12
2022-08-17T15:00:33.273Z,4.00
2022-08-17T15:03:04.341Z,4.18
2022-08-17T15:05:36.713Z,4.61
2022-08-17T15:08:07.132Z,5.60
2022-08-17T15:10:36.401Z,6.01
2022-08-17T15:13:05.020Z,6.20
2022-08-17T15:15:33.496Z,6.74
2022-08-17T15:18:03.798Z,7.03
2022-08-17T15:20:32.485Z,7.61
2022-08-17T15:23:01.020Z,8.04
2022-08-17T15:25:32.797Z,8.33
2022-08-17T15:28:02.748Z,8.48
2022-08-17T15:30:32.654Z,9.06
2022-08-17T15:33:03.441Z,9.28
2022-08-17T15:35:34.251Z,9.49
2022-08-17T15:38:12.173Z,10.02
2022-08-17T15:40:45.591Z,10.23
2022-08-17T15:43:20.113Z,10.57
2022-08-17T15:46:00.802Z,10.22
2022-08-17T15:48:42.170Z,10.66
2022-08-17T15:51:14.487Z,10.88
2022-08-17T15:53:45.147Z,11.07
2022-08-17T15:56:15.200Z,11.40
2022-08-17T15:58:46.719Z,11.44
2022-08-17T16:01:35.183Z,11.52
2022-08-17T16:04:26.690Z,11.86
2022-08-17T16:06:55.837Z,11.90
2022-08-17T16:09:24.254Z,12.03
2022-08-17T16:11:55.436Z,11.96
2022-08-17T16:14:24.413Z,12.10
2022-08-17T16:16:59.412Z,12.38
2022-08-17T16:19:29.189Z,12.39
2022-08-17T16:21:57.799Z,12.19
2022-08-17T16:24:26.438Z,12.40
2022-08-17T16:26:55.457Z,12.50
2022-08-17T16:29:24.701Z,12.93
2022-08-17T16:31:53.465Z,12.62
2022-08-17T16:34:22.058Z,12.66
2022-08-17T16:36:55.905Z,13.40
2022-08-17T16:39:29.844Z,13.39
2022-08-17T16:41:58.888Z,13.44
2022-08-17T16:44:31.889Z,13.71
2022-08-17T16:47:01.188Z,13.47
2022-08-17T16:49:37.234Z,13.73
2022-08-17T16:52:11.316Z,13.72
2022-08-17T16:54:43.959Z,13.87
2022-08-17T16:57:13.755Z,13.70
2022-08-17T16:59:47.498Z,14.27
2022-08-17T17:02:24.753Z,14.35
2022-08-17T17:05:02.770Z,14.46
2022-08-17T17:08:00.840Z,14.42
2022-08-17T17:10:38.795Z,14.68
2022-08-17T17:13:13.979Z,14.94
2022-08-17T17:15:57.510Z,14.77
2022-08-17T17:18:38.516Z,15.33
2022-08-17T17:21:11.037Z,15.01
2022-08-17T17:23:52.025Z,15.46
2022-08-17T17:26:45.016Z,15.27
2022-08-17T17:29:29.666Z,15.42
2022-08-17T17:32:26.365Z,15.85
2022-08-17T17:35:02.826Z,15.65
2022-08-17T17:37:36.410Z,15.92
2022-08-17T17:40:15.655Z,16.12
2022-08-17T17:42:45.651Z,16.26
2022-08-17T17:45:22.408Z,16.40
2022-08-17T17:47:51.469Z,16.24
2022-08-17T17:50:27.698Z,16.59
2022-08-17T17:53:02.582Z,16.75
2022-08-17T17:55:48.252Z,17.02
2022-08-17T17:58:33.798Z,16.81
2022-08-17T18:01:20.609Z,17.03
2022-08-17T18:04:17.037Z,17.15
2022-08-17T18:07:12.332Z,17.35
2022-08-17T18:10:03.445Z,17.19
2022-08-17T18:12:44.643Z,17.15
2022-08-17T18:15:31.489Z,17.80
2022-08-17T18:18:31.282Z,17.59
2022-08-17T18:21:06.614Z,17.55
2022-08-17T18:23:35.617Z,17.88
2022-08-17T18:26:04.118Z,18.26
2022-08-17T18:28:36.700Z,18.07
2022-08-17T18:31:17.747Z,18.67
2022-08-17T18:33:49.122Z,18.96
2022-08-17T18:36:31.077Z,18.66
2022-08-17T18:39:12.706Z,18.65
2022-08-17T18:41:44.133Z,19.40
2022-08-17T18:44:29.012Z,19.14
2022-08-17T18:47:13.582Z,19.56
2022-08-17T18:49:43.760Z,19.80
2022-08-17T18:52:22.867Z,19.60
2022-08-17T18:55:09.899Z,20.07
2022-08-17T18:57:41.733Z,20.26
2022-08-17T19:00:20.839Z,20.13
2022-08-17T19:02:55.791Z,20.25
2022-08-17T19:05:35.602Z,20.27
2022-08-17T19:08:25.562Z,20.89
2022-08-17T19:10:59.570Z,21.11
2022-08-17T19:13:35.180Z,21.18
2022-08-17T19:16:16.021Z,20.89
2022-08-17T19:18:53.332Z,21.29
2022-08-17T19:21:27.636Z,20.83
2022-08-17T19:24:06.152Z,21.30
2022-08-17T19:26:53.609Z,21.26
2022-08-17T19:29:34.394Z,21.70
2022-08-17T19:32:05.442Z,21.63
2022-08-17T19:34:37.875Z,21.79
2022-08-17T19:37:15.421Z,22.20
2022-08-17T19:39:56.504Z,21.94
2022-08-17T19:42:42.761Z,22.06
2022-08-17T19:45:26.672Z,22.44
2022-08-17T19:48:07.646Z,22.64
2022-08-17T19:50:45.125Z,22.70
2022-08-17T19:53:54.106Z,22.46
2022-08-17T19:56:31.831Z,22.68
2022-08-17T19:59:11.405Z,22.53
2022-08-17T20:01:46.451Z,22.46
2022-08-17T20:04:32.235Z,22.94
2022-08-17T20:07:07.758Z,22.42
2022-08-17T20:09:40.886Z,22.44
2022-08-17T20:12:15.267Z,22.59
2022-08-17T20:14:53.680Z,22.68
2022-08-17T20:17:28.345Z,22.99
2022-08-17T20:20:07.622Z,22.92
2022-08-17T20:22:56.007Z,22.88
2022-08-17T20:25:42.126Z,23.04
2022-08-17T20:28:24.430Z,22.95
2022-08-17T20:30:53.690Z,23.41
2022-08-17T20:33:29.731Z,23.56
2022-08-17T20:36:19.414Z,23.64
2022-08-17T20:38:50.897Z,23.43
2022-08-17T20:41:22.300Z,23.62
2022-08-17T20:44:04.197Z,23.75
2022-08-17T20:47:06.411Z,23.83
2022-08-17T20:49:52.225Z,23.72
2022-08-17T20:52:52.706Z,24.00
2022-08-17T20:55:55.757Z,24.04
2022-08-17T20:58:49.693Z,24.22
2022-08-17T21:01:35.068Z,24.55
2022-08-17T21:04:09.478Z,24.54
2022-08-17T21:07:43.372Z,24.30
2022-08-17T21:10:18.152Z,24.36
2022-08-17T21:12:51.501Z,24.58
2022-08-17T21:15:35.352Z,24.44
2022-08-17T21:18:13.913Z,24.65
2022-08-17T21:21:04.073Z,24.54
2022-08-17T21:23:54.742Z,24.49
2022-08-17T21:26:33.516Z,24.52
2022-08-17T21:29:31.397Z,24.61
2022-08-17T21:32:24.523Z,24.33
2022-08-17T21:35:30.440Z,24.56
2022-08-17T21:38:05.164Z,24.59
2022-08-17T21:40:35.324Z,24.75
2022-08-17T21:43:23.672Z,25.08
2022-08-17T21:46:06.638Z,25.00
2022-08-17T21:48:45.227Z,24.97
2022-08-17T21:51:23.539Z,25.11
2022-08-17T21:53:56.750Z,25.31
2022-08-17T21:56:29.240Z,25.32
2022-08-17T21:59:02.783Z,25.31
2022-08-17T22:01:36.594Z,25.45
2022-08-17T22:04:19.612Z,25.60
2022-08-17T22:06:56.626Z,25.44
2022-08-17T22:09:28.701Z,25.76
2022-08-17T22:12:06.826Z,25.78
2022-08-17T22:14:52.246Z,25.71
2022-08-17T22:17:25.989Z,26.00
2022-08-17T22:19:58.896Z,25.94
2022-08-17T22:22:56.827Z,25.93
2022-08-17T22:25:26.611Z,25.99
2022-08-17T22:27:58.263Z,26.11
2022-08-17T22:30:37.061Z,26.10
2022-08-17T22:33:32.450Z,26.41
2022-08-17T22:36:14.362Z,26.25
2022-08-17T22:38:43.853Z,26.22
2022-08-17T22:41:51.595Z,26.37
2022-08-17T22:44:27.251Z,26.28
2022-08-17T22:47:11.330Z,26.28
2022-08-17T22:49:53.025Z,26.31
2022-08-17T22:52:35.598Z,26.43
2022-08-17T22:55:33.001Z,26.39
2022-08-17T22:58:20.809Z,26.86
2022-08-17T23:00:51.152Z,26.93
2022-08-17T23:03:24.164Z,26.75
2022-08-17T23:06:06.188Z,26.82
2022-08-17T23:08:37.135Z,26.90
2022-08-17T23:11:07.788Z,27.00
2022-08-17T23:13:37.863Z,26.94
2022-08-17T23:16:06.562Z,26.73
2022-08-17T23:18:37.466Z,27.01
2022-08-17T23:21:07.760Z,27.10
2022-08-17T23:23:37.152Z,27.21
2022-08-17T23:26:10.455Z,27.29
2022-08-17T23:28:41.103Z,27.61
2022-08-17T23:31:09.864Z,27.46
2022-08-17T23:33:40.882Z,27.47
2022-08-17T23:36:15.436Z,27.83
2022-08-17T23:38:44.705Z,27.69
2022-08-17T23:41:17.035Z,27.41
2022-08-17T23:43:58.207Z,27.49
2022-08-17T23:46:26.650Z,27.44
2022-08-17T23:48:56.442Z,27.68
2022-08-17T23:51:28.838Z,27.57
2022-08-17T23:54:07.959Z,27.64
2022-08-17T23:56:42.100Z,27.54
2022-08-17T23:59:11.722Z,27.49
